Time;durP1;ratioP1;P1;durP2;ratioP2;P2;SDS_P1;SDS_P2;PMS_P1;PMS_P2;Temp;Humidity;BMP_temperature;BMP_pressure;BME280_temperature;BME280_humidity;BME280_pressure;Samples;Min_cycle;Max_cycle;Signal;HPM_P1;HPM_P2
2023/09/02 00:00:09;;;;;;;6.60;5.93;;;;;;;-144.30;50.37;84060.78;5134398;27;20229;-50
2023/09/02 00:03:09;;;;;;;7.47;6.78;;;;;;;-144.30;50.63;84092.59;5133809;27;20648;-50
2023/09/02 00:06:20;;;;;;;8.45;7.00;;;;;;;-144.30;50.84;84088.63;5130564;27;20194;-53
2023/09/02 00:09:10;;;;;;;7.32;6.72;;;;;;;-144.30;51.12;84108.50;5133619;27;20689;-54
2023/09/02 00:11:38;;;;;;;11.30;7.50;;;;;;;-144.30;51.28;84080.66;5134113;27;20284;-49
2023/09/02 00:20:05;;;;;;;11.95;7.00;;;;;;;-144.30;51.59;84128.34;5129857;27;20290;-53
2023/09/02 00:23:12;;;;;;;8.15;7.35;;;;;;;-144.30;51.45;84128.34;5133706;27;20213;-54
2023/09/02 00:29:41;;;;;;;14.43;10.35;;;;;;;-144.30;52.89;84160.16;5090607;28;20234;-50
2023/09/02 00:36:15;;;;;;;9.60;8.43;;;;;;;-144.30;53.79;84215.78;5089822;28;20621;-50
2023/09/02 00:42:22;;;;;;;7.10;6.65;;;;;;;-144.30;54.16;84203.88;5091269;28;20206;-51
2023/09/02 00:45:22;;;;;;;10.40;9.32;;;;;;;-144.30;54.33;84211.81;5092138;28;20194;-53
2023/09/02 00:48:11;;;;;;;9.13;8.23;;;;;;;-144.30;54.75;84257.53;5092285;28;20261;-53
2023/09/02 00:54:28;;;;;;;10.02;8.73;;;;;;;-144.30;55.06;84257.53;5091390;28;20299;-53
2023/09/02 01:03:22;;;;;;;8.82;7.97;;;;;;;-144.30;55.38;84269.47;5091511;28;20233;-54
2023/09/02 01:06:30;;;;;;;8.25;7.60;;;;;;;-144.30;55.12;84235.66;5091865;28;20199;-54
2023/09/02 01:19:11;;;;;;;8.43;7.53;;;;;;;-144.30;54.59;84211.81;5091788;28;20202;-50
2023/09/02 01:26:07;;;;;;;;;;;;;;;;;;;;;
2023/09/02 01:35:25;;;;;;;7.45;5.88;;;;;;;-144.30;54.23;84235.66;5109834;28;20199;-53
2023/09/02 01:38:21;;;;;;;6.82;5.93;;;;;;;-144.30;53.82;84233.69;5111276;28;20202;-55
2023/09/02 01:50:55;;;;;;;4.90;4.60;;;;;;;-144.30;53.73;84186.00;5110023;28;20201;-54
2023/09/02 01:53:42;;;;;;;4.78;4.32;;;;;;;-144.30;53.77;84271.44;5111348;28;20698;-54
2023/09/02 02:06:21;;;;;;;8.52;5.88;;;;;;;-144.30;55.56;84317.16;5089635;28;20204;-52
2023/09/02 02:18:21;;;;;;;9.70;5.40;;;;;;;-144.30;57.01;84333.06;5090044;28;20554;-54
2023/09/02 02:21:09;;;;;;;6.18;5.63;;;;;;;-144.30;57.26;84331.06;5090768;28;20195;-54
2023/09/02 02:24:13;;;;;;;8.88;5.60;;;;;;;-144.30;57.53;84307.22;5090260;28;20195;-53
2023/09/02 02:27:22;;;;;;;5.85;5.45;;;;;;;-144.30;57.92;84331.06;5091144;28;20234;-53
2023/09/02 02:30:20;;;;;;;6.38;5.78;;;;;;;-144.30;57.50;84335.03;5110145;28;20226;-53
2023/09/02 02:32:50;;;;;;;10.10;6.40;;;;;;;-144.30;57.45;84315.16;5110479;28;20190;-54
2023/09/02 02:35:36;;;;;;;5.85;5.38;;;;;;;-144.30;57.57;84295.28;5110678;28;20230;-53
2023/09/02 02:38:31;;;;;;;;;;;;;;;;;;;;;
2023/09/02 02:41:00;;;;;;;5.90;5.40;;;;;;;-144.30;57.84;84331.06;5111784;27;20194;-53
2023/09/02 02:43:47;;;;;;;6.50;5.78;;;;;;;-144.30;58.00;84344.97;5130782;27;20202;-53
2023/09/02 02:46:29;;;;;;;6.50;6.00;;;;;;;-144.30;58.06;84335.03;5131061;27;20202;-53
2023/09/02 02:48:58;;;;;;;6.57;5.90;;;;;;;-144.30;58.60;84337.03;5127586;27;20221;-49
2023/09/02 02:51:37;;;;;;;6.40;6.00;;;;;;;-144.30;58.35;84329.06;5130698;27;20197;-50
2023/09/02 02:54:08;;;;;;;6.10;5.53;;;;;;;-144.30;58.40;84339.00;5130538;27;20281;-50
2023/09/02 02:56:50;;;;;;;8.27;6.03;;;;;;;-144.30;58.62;84350.94;5128424;27;20193;-49
2023/09/02 02:59:36;;;;;;;6.07;5.60;;;;;;;-144.30;58.84;84356.91;5130256;27;20189;-51
2023/09/02 03:02:26;;;;;;;13.60;6.20;;;;;;;-144.30;58.79;84370.81;5124784;27;20254;-48
2023/09/02 03:05:09;;;;;;;6.88;6.10;;;;;;;-144.30;58.87;84364.84;5130513;27;20199;-50
2023/09/02 03:07:48;;;;;;;6.93;6.43;;;;;;;-144.30;59.21;84354.91;5130846;27;20202;-55
2023/09/02 03:10:22;;;;;;;6.88;6.38;;;;;;;-144.30;59.54;84382.72;5130447;27;20312;-51
2023/09/02 03:12:59;;;;;;;7.55;6.22;;;;;;;-144.30;59.79;84382.72;5130270;27;20418;-54
2023/09/02 03:15:37;;;;;;;7.22;6.63;;;;;;;-144.30;60.04;84342.97;5130170;27;20626;-53
2023/09/02 03:18:14;;;;;;;6.90;6.40;;;;;;;-144.30;60.73;84438.38;5130379;27;20705;-53
2023/09/02 03:20:50;;;;;;;6.85;6.32;;;;;;;-144.30;61.45;84440.38;5131014;27;20201;-50
2023/09/02 03:23:34;;;;;;;7.18;6.38;;;;;;;-144.30;61.48;84430.44;5130172;27;20613;-50
2023/09/02 03:26:24;;;;;;;7.30;6.80;;;;;;;-144.30;61.80;84416.50;5127116;27;20206;-50
2023/09/02 03:29:13;;;;;;;6.57;5.97;;;;;;;-144.30;62.14;84434.41;5125626;28;20312;-49
2023/09/02 03:31:49;;;;;;;7.45;6.82;;;;;;;-144.30;63.07;84414.53;5128681;28;20198;-50
2023/09/02 03:34:31;;;;;;;6.85;6.30;;;;;;;-144.30;63.14;84442.34;5127947;28;20629;-54
2023/09/02 03:37:03;;;;;;;6.97;6.57;;;;;;;-144.30;63.45;84456.25;5127971;28;20197;-54
2023/09/02 03:39:50;;;;;;;6.45;6.03;;;;;;;-144.30;63.99;84420.50;5129247;28;20190;-53
2023/09/02 03:42:34;;;;;;;7.30;6.75;;;;;;;-144.30;64.31;84466.19;5128722;28;20653;-53
2023/09/02 03:45:19;;;;;;;7.32;6.68;;;;;;;-144.30;64.68;84474.16;5128937;28;20190;-53
2023/09/02 03:47:51;;;;;;;7.82;6.93;;;;;;;-144.30;65.00;84478.13;5125404;28;20229;-53
2023/09/02 03:50:33;;;;;;;7.15;6.50;;;;;;;-144.30;65.35;84450.31;5128930;28;20210;-53
2023/09/02 03:53:17;;;;;;;7.38;6.78;;;;;;;-144.30;65.48;84486.06;5129470;28;20258;-50
2023/09/02 03:55:57;;;;;;;7.93;7.18;;;;;;;-144.30;65.46;84486.06;5129774;28;20202;-49
2023/09/02 03:58:33;;;;;;;8.10;7.40;;;;;;;-144.30;65.52;84496.00;5129628;28;20202;-52
2023/09/02 04:01:04;;;;;;;8.38;7.78;;;;;;;-144.30;65.56;84438.38;5118069;28;20202;-54
2023/09/02 04:03:52;;;;;;;10.20;7.57;;;;;;;-144.30;65.40;84484.09;5123649;28;20198;-53
2023/09/02 04:06:37;;;;;;;8.80;8.00;;;;;;;-144.30;65.25;84486.06;5128460;28;20463;-50
2023/09/02 04:09:29;;;;;;;8.80;7.90;;;;;;;-144.30;65.20;84521.84;5129589;28;20600;-49
2023/09/02 04:12:10;;;;;;;8.23;7.53;;;;;;;-144.30;65.37;84492.03;5130395;28;20255;-51
2023/09/02 04:14:59;;;;;;;8.30;7.60;;;;;;;-144.30;65.00;84468.19;5129685;28;20745;-49
2023/09/02 04:20:51;;;;;;;9.15;8.32;;;;;;;-144.30;64.94;84442.34;5128895;28;20194;-53
2023/09/02 04:23:29;;;;;;;9.25;8.20;;;;;;;-144.30;64.93;84482.09;5129810;28;20584;-54
2023/09/02 04:26:10;;;;;;;9.05;8.43;;;;;;;-144.30;64.18;84410.56;5129561;28;20237;-54
2023/09/02 04:28:48;;;;;;;8.80;8.05;;;;;;;-144.30;63.73;84454.28;5128682;28;20266;-50
2023/09/02 04:34:37;;;;;;;8.70;7.35;;;;;;;-144.30;61.67;84360.88;5132863;27;20229;-49
2023/09/02 04:37:14;;;;;;;8.00;7.35;;;;;;;-144.30;59.46;84247.59;5133322;27;20674;-49
2023/09/02 04:39:44;;;;;;;8.10;7.32;;;;;;;-144.30;58.47;84245.59;5134017;27;20186;-50
2023/09/02 04:42:19;;;;;;;7.55;7.05;;;;;;;-144.30;57.84;84211.81;5133242;27;20201;-50
2023/09/02 04:45:26;;;;;;;7.57;7.07;;;;;;;-144.30;57.15;84166.13;5133497;27;20247;-51
2023/09/02 04:48:29;;;;;;;8.40;7.75;;;;;;;-144.30;54.29;84025.03;5133054;27;20193;-51
2023/09/02 04:51:03;;;;;;;8.38;6.47;;;;;;;-144.30;51.94;83937.59;5121091;27;20186;-51
2023/09/02 04:53:48;;;;;;;8.20;6.68;;;;;;;-144.30;50.41;83826.31;5132333;27;20289;-54
2023/09/02 04:56:37;;;;;;;7.30;6.47;;;;;;;-144.30;49.85;83800.50;5129876;27;20196;-50
2023/09/02 04:59:15;;;;;;;9.07;6.80;;;;;;;-144.30;49.95;83818.38;5130938;27;20190;-50
2023/09/02 05:02:05;;;;;;;10.18;6.85;;;;;;;-144.30;50.88;83923.69;5129428;27;20205;-53
2023/09/02 05:04:36;;;;;;;7.85;7.03;;;;;;;-144.30;52.04;83959.44;5129214;27;20252;-54
2023/09/02 05:07:09;;;;;;;7.45;6.80;;;;;;;-144.30;52.37;83955.47;5131840;27;20204;-54
2023/09/02 05:13:17;;;;;;;9.95;7.05;;;;;;;-144.30;49.66;83844.19;5130122;27;20288;-51
2023/09/02 05:22:29;;;;;;;8.32;7.00;;;;;;;-144.30;47.83;83568.00;5129596;27;20648;-54
2023/09/02 05:28:02;;;;;;;6.70;6.18;;;;;;;-144.30;41.89;83206.41;5130439;27;20221;-52
2023/09/02 05:30:47;;;;;;;6.45;5.95;;;;;;;-144.30;39.14;82966.03;5132160;27;20241;-51
2023/09/02 05:33:19;;;;;;;6.15;5.55;;;;;;;-144.30;37.62;82757.47;5111630;27;20283;-51
2023/09/02 05:36:08;;;;;;;6.15;5.75;;;;;;;-144.30;36.25;82606.50;5129088;27;20190;-51
2023/09/02 05:38:49;;;;;;;7.65;6.05;;;;;;;-144.30;35.41;82475.41;5131079;27;20286;-55
2023/09/02 05:41:45;;;;;;;9.60;6.13;;;;;;;-144.30;34.21;82316.50;5131943;27;20692;-55
2023/09/02 05:47:52;;;;;;;5.93;5.10;;;;;;;-144.30;32.93;82105.97;5131797;27;20225;-56
2023/09/02 05:53:55;;;;;;;7.45;6.20;;;;;;;-144.30;31.49;81804.09;5129012;27;20208;-53
2023/09/02 05:56:31;;;;;;;6.93;5.43;;;;;;;-144.30;31.96;81970.94;5131114;27;20304;-52
2023/09/02 05:59:32;;;;;;;6.75;5.38;;;;;;;-144.30;31.37;81877.59;5129376;27;20229;-53
2023/09/02 06:02:25;;;;;;;5.53;5.15;;;;;;;-144.30;30.88;81740.56;5129037;27;20201;-52
2023/09/02 06:08:36;;;;;;;5.40;4.90;;;;;;;-144.30;29.78;81508.22;5124580;27;20582;-51
2023/09/02 06:18:19;;;;;;;9.35;5.43;;;;;;;-144.30;29.39;81363.28;5123943;27;20680;-52
2023/09/02 06:24:16;;;;;;;7.85;5.07;;;;;;;-144.30;28.43;81101.19;5128604;27;20204;-57
2023/09/02 06:26:51;;;;;;;5.60;4.82;;;;;;;-144.30;28.17;81119.06;5130353;27;20201;-51
2023/09/02 06:29:30;;;;;;;8.38;4.95;;;;;;;-144.30;29.07;81458.59;5129990;27;20225;-55
2023/09/02 06:32:10;;;;;;;7.05;5.47;;;;;;;-144.30;29.65;81545.97;5128584;27;20685;-51
2023/09/02 06:34:50;;;;;;;6.78;5.13;;;;;;;-144.30;29.36;81401.00;5128651;27;20197;-55
2023/09/02 06:37:28;;;;;;;5.97;5.47;;;;;;;-144.30;28.62;81152.81;5129058;27;20194;-56
2023/09/02 06:40:16;;;;;;;6.78;5.65;;;;;;;-144.30;28.14;81069.41;5128239;27;20185;-56
2023/09/02 06:43:01;;;;;;;7.97;5.80;;;;;;;-144.30;28.48;81212.38;5129208;27;20280;-51
2023/09/02 06:45:47;;;;;;;11.20;5.53;;;;;;;-144.30;28.40;81216.34;5127449;27;20276;-56
2023/09/02 06:48:25;;;;;;;5.63;5.13;;;;;;;-144.30;28.24;81220.31;5127815;27;20189;-56
2023/09/02 06:51:14;;;;;;;6.38;5.53;;;;;;;-144.30;27.83;80948.31;5127367;27;20250;-57
2023/09/02 06:53:56;;;;;;;5.10;4.60;;;;;;;-144.30;27.16;80755.72;5128871;27;20200;-52
2023/09/02 06:56:50;;;;;;;5.10;4.70;;;;;;;-144.30;26.84;80571.09;5128592;27;20233;-57
2023/09/02 06:59:25;;;;;;;8.73;4.88;;;;;;;-144.30;26.45;80358.69;5128337;27;20227;-52
2023/09/02 07:01:53;;;;;;;7.78;4.93;;;;;;;-144.30;25.93;80180.06;5126238;27;20196;-53
2023/09/02 07:04:30;;;;;;;7.47;5.18;;;;;;;-144.30;25.28;79902.16;5129762;27;20668;-52
2023/09/02 07:07:07;;;;;;;5.60;5.10;;;;;;;-144.30;25.31;79761.25;5128382;27;20282;-52
2023/09/02 07:10:09;;;;;;;6.18;5.10;;;;;;;-144.30;24.58;79709.66;5127281;27;20303;-57
2023/09/02 07:13:09;;;;;;;6.10;4.38;;;;;;;-144.30;24.70;79755.31;5129852;27;20253;-57
2023/09/02 07:16:15;;;;;;;4.63;4.32;;;;;;;-144.30;24.33;79775.16;5130040;27;20193;-51
2023/09/02 07:22:06;;;;;;;4.13;3.92;;;;;;;-144.30;24.30;79870.41;5123276;28;20196;-51
2023/09/02 07:27:54;;;;;;;4.47;4.05;;;;;;;-144.30;24.31;79973.63;5126484;27;20228;-51
2023/09/02 07:30:27;;;;;;;3.80;3.60;;;;;;;-144.30;24.64;80080.81;5127409;28;20213;-52
2023/09/02 07:33:01;;;;;;;3.72;3.42;;;;;;;-144.30;24.52;80128.44;5129202;28;20274;-57
2023/09/02 07:36:06;;;;;;;4.35;3.70;;;;;;;-144.30;24.91;80281.28;5129442;28;20197;-56
2023/09/02 07:39:03;;;;;;;3.60;3.38;;;;;;;-144.30;24.86;80166.16;5129847;28;20286;-57
2023/09/02 07:41:50;;;;;;;3.85;3.65;;;;;;;-144.30;24.85;80116.53;5126097;28;20189;-58
2023/09/02 07:44:48;;;;;;;4.40;3.40;;;;;;;-144.30;24.23;79900.19;5129312;28;20186;-57
2023/09/02 07:48:00;;;;;;;3.88;3.58;;;;;;;-144.30;24.50;79882.31;5126089;28;20185;-57
2023/09/02 07:57:19;;;;;;;4.15;3.70;;;;;;;-144.30;24.28;79582.63;5108417;28;20740;-57
2023/09/02 07:59:52;;;;;;;4.57;3.38;;;;;;;-144.30;23.99;79711.63;5109097;28;20250;-57
2023/09/02 08:03:01;;;;;;;3.78;3.42;;;;;;;-144.30;24.35;79981.56;5109136;28;20580;-52
2023/09/02 08:09:19;;;;;;;5.65;4.10;;;;;;;-144.30;24.22;80043.09;5108767;28;20202;-53
2023/09/02 08:12:20;;;;;;;4.65;3.22;;;;;;;-144.30;24.13;79963.69;5112775;28;20312;-51
2023/09/02 08:15:24;;;;;;;3.38;3.17;;;;;;;-144.30;23.99;79626.31;5112975;28;20588;-50
2023/09/02 08:18:38;;;;;;;3.90;3.58;;;;;;;-144.30;24.06;79648.13;5121562;27;20246;-55
2023/09/02 08:21:30;;;;;;;;;;;;;;;;;;;;;
2023/09/02 08:24:22;;;;;;;4.18;3.47;;;;;;;-144.30;24.09;79749.34;5130156;27;20591;-51
2023/09/02 08:27:12;;;;;;;3.80;3.50;;;;;;;-144.30;24.30;79795.00;5132538;27;20246;-49
2023/09/02 08:30:41;;;;;;;3.53;3.28;;;;;;;-144.30;23.84;79715.59;5091682;28;20585;-51
2023/09/02 08:33:40;;;;;;;4.07;3.78;;;;;;;-144.30;23.80;79687.81;5092060;28;20281;-56
2023/09/02 08:52:08;;;;;;;4.50;4.20;;;;;;;-144.30;24.18;79844.63;5089786;28;20223;-56
2023/09/02 08:55:32;;;;;;;5.70;5.20;;;;;;;-144.30;24.16;80025.22;5091724;28;20202;-51
2023/09/02 09:15:07;;;;;;;3.88;3.63;;;;;;;-144.30;24.35;80013.31;5089615;28;20199;-56
2023/09/02 09:18:26;;;;;;;4.32;3.58;;;;;;;-144.30;24.81;80406.34;5091137;28;20199;-51
2023/09/02 09:27:55;;;;;;;4.15;3.58;;;;;;;-144.30;23.82;80100.66;5090414;27;20253;-50
2023/09/02 09:43:48;;;;;;;3.50;3.30;;;;;;;-144.30;24.62;80402.38;5129817;27;20239;-51
2023/09/02 09:46:55;;;;;;;;;;;;;;;;;;;;;
2023/09/02 09:53:06;;;;;;;5.90;3.85;;;;;;;-144.30;25.12;80620.72;5128195;27;20194;-55
2023/09/02 09:55:57;;;;;;;3.83;3.13;;;;;;;-144.30;25.00;80942.34;5131391;27;20696;-55
2023/09/02 09:58:41;;;;;;;3.95;3.63;;;;;;;-144.30;25.08;80654.47;5125931;27;20201;-57
2023/09/02 10:01:12;;;;;;;3.97;3.60;;;;;;;-144.30;25.37;80924.47;5130020;27;20250;-55
2023/09/02 10:03:41;;;;;;;3.30;3.10;;;;;;;-144.30;26.53;81428.81;5129773;27;20250;-53
2023/09/02 10:06:21;;;;;;;3.92;3.72;;;;;;;-144.30;27.46;81800.13;5130247;27;20201;-48
2023/09/02 10:09:11;;;;;;;4.50;3.85;;;;;;;-144.30;28.18;81966.94;5130578;27;20201;-54
2023/09/02 10:11:44;;;;;;;3.75;3.50;;;;;;;-144.30;29.02;82113.91;5128901;27;20325;-54
2023/09/02 10:14:37;;;;;;;4.18;3.72;;;;;;;-144.30;29.29;82125.84;5130817;27;20251;-54
2023/09/02 10:17:20;;;;;;;5.18;3.97;;;;;;;-144.30;29.63;82209.25;5129436;27;20810;-49
2023/09/02 10:19:55;;;;;;;5.93;4.60;;;;;;;-144.30;29.58;82213.22;5129831;27;20194;-55
2023/09/02 10:22:31;;;;;;;6.45;5.97;;;;;;;-144.30;29.49;82233.09;5129700;27;20669;-55
2023/09/02 10:28:39;;;;;;;5.25;4.10;;;;;;;-144.30;29.75;82272.81;5127569;27;20240;-50
2023/09/02 10:31:16;;;;;;;4.10;3.78;;;;;;;-144.30;28.92;82239.03;5127654;27;20222;-49
2023/09/02 10:34:01;;;;;;;3.70;3.40;;;;;;;-144.30;29.35;82304.59;5129515;27;20259;-51
2023/09/02 10:36:48;;;;;;;4.70;4.10;;;;;;;-144.30;29.04;82254.94;5130040;27;20591;-49
2023/09/02 10:39:33;;;;;;;3.80;3.60;;;;;;;-144.30;29.71;82376.09;5127344;27;20194;-50
2023/09/02 10:42:06;;;;;;;4.13;3.90;;;;;;;-144.30;29.80;83075.31;5129102;27;20189;-54
2023/09/02 10:44:50;;;;;;;4.03;3.70;;;;;;;-144.30;29.91;82393.97;5128996;27;20259;-51
2023/09/02 10:47:27;;;;;;;4.13;3.80;;;;;;;-144.30;30.36;82485.34;5129567;27;20225;-49
2023/09/02 10:50:02;;;;;;;4.20;3.90;;;;;;;-144.30;30.68;82533.00;5129139;27;20189;-49
2023/09/02 10:52:41;;;;;;;4.25;3.92;;;;;;;-144.30;30.85;82538.97;5127955;27;20286;-51
2023/09/02 10:55:21;;;;;;;3.85;3.63;;;;;;;-144.30;30.48;82493.28;5128922;27;20198;-50
2023/09/02 10:58:01;;;;;;;4.20;3.90;;;;;;;-144.30;30.40;82501.22;5128411;27;20197;-49
2023/09/02 11:00:49;;;;;;;3.50;3.30;;;;;;;-144.30;30.33;82507.19;5129781;27;20220;-57
2023/09/02 11:04:02;;;;;;;5.05;3.83;;;;;;;-144.30;30.53;82515.13;5126900;27;20616;-56
2023/09/02 11:06:59;;;;;;;4.18;3.92;;;;;;;-144.30;30.64;82509.16;5127554;27;20189;-52
2023/09/02 11:13:18;;;;;;;4.20;3.80;;;;;;;-144.30;30.43;82503.22;5128122;27;20608;-50
2023/09/02 11:16:26;;;;;;;5.07;3.70;;;;;;;-144.30;29.99;82485.34;5127075;27;20646;-57
2023/09/02 11:19:34;;;;;;;4.30;4.10;;;;;;;-144.30;30.36;82483.34;5127379;27;20258;-57
2023/09/02 11:29:25;;;;;;;3.88;3.67;;;;;;;-144.30;30.28;82517.09;5126701;27;20663;-52
2023/09/02 11:47:00;;;;;;;4.47;4.20;;;;;;;-144.30;30.26;82556.84;5128686;27;20195;-50
2023/09/02 11:49:54;;;;;;;4.60;4.10;;;;;;;-144.30;30.32;82562.78;5133370;27;20196;-51
2023/09/02 11:52:45;;;;;;;6.00;5.43;;;;;;;-144.30;30.31;82554.84;5133211;27;20206;-51
2023/09/02 11:55:22;;;;;;;4.65;4.45;;;;;;;-144.30;29.82;82552.88;5130269;27;20201;-56
2023/09/02 11:57:52;;;;;;;4.78;4.57;;;;;;;-144.30;29.40;82491.28;5131956;27;20628;-56
2023/09/02 12:00:34;;;;;;;4.57;4.28;;;;;;;-144.30;29.54;82499.22;5133193;27;20290;-56
2023/09/02 12:03:11;;;;;;;6.18;4.60;;;;;;;-144.30;29.99;82536.97;5131861;27;20193;-57
2023/09/02 12:05:59;;;;;;;4.90;4.50;;;;;;;-144.30;30.23;82521.09;5131661;27;20680;-51
2023/09/02 12:08:51;;;;;;;7.53;4.00;;;;;;;-144.30;30.31;82533.00;5132416;27;20681;-52
2023/09/02 12:11:46;;;;;;;7.57;4.82;;;;;;;-144.30;30.46;82600.53;5132939;27;20222;-50
2023/09/02 12:14:14;;;;;;;4.70;4.40;;;;;;;-144.30;30.28;82564.78;5125532;27;20201;-51
2023/09/02 12:16:49;;;;;;;5.95;4.50;;;;;;;-144.30;30.30;82652.19;5131181;27;20657;-51
2023/09/02 12:19:23;;;;;;;4.88;4.57;;;;;;;-144.30;29.95;82608.47;5132543;27;20198;-52
2023/09/02 12:22:01;;;;;;;5.53;4.65;;;;;;;-144.30;30.18;82650.19;5131606;27;20754;-51
2023/09/02 12:24:38;;;;;;;4.80;4.50;;;;;;;-144.30;30.11;82630.34;5130825;27;20205;-52
2023/09/02 12:27:19;;;;;;;4.53;4.05;;;;;;;-144.30;30.64;82636.28;5131775;27;20198;-52
2023/09/02 12:30:04;;;;;;;4.65;4.28;;;;;;;-144.30;30.45;82574.72;5128524;27;20667;-50
2023/09/02 12:32:33;;;;;;;4.50;4.30;;;;;;;-144.30;29.94;82634.31;5131204;27;20221;-50
2023/09/02 12:35:10;;;;;;;5.07;4.53;;;;;;;-144.30;30.10;82658.13;5129488;27;20225;-50
2023/09/02 12:37:46;;;;;;;4.50;4.30;;;;;;;-144.30;30.16;82616.44;5132814;27;20571;-52
2023/09/02 12:40:24;;;;;;;5.38;4.85;;;;;;;-144.30;29.99;82614.44;5131237;27;20280;-56
2023/09/02 12:43:00;;;;;;;4.60;4.30;;;;;;;-144.30;30.08;82630.34;5129903;27;20200;-57
2023/09/02 12:45:34;;;;;;;4.95;4.55;;;;;;;-144.30;30.16;82638.28;5130292;27;20252;-57
2023/09/02 12:48:09;;;;;;;4.53;4.22;;;;;;;-144.30;30.21;82658.13;5129395;27;20611;-57
2023/09/02 12:50:48;;;;;;;4.63;4.22;;;;;;;-144.30;30.29;82648.22;5132385;27;20190;-51
2023/09/02 12:53:31;;;;;;;4.50;4.20;;;;;;;-144.30;30.13;82638.28;5130339;27;20226;-58
2023/09/02 12:56:03;;;;;;;8.57;4.53;;;;;;;-144.30;30.39;82685.94;5130817;27;20631;-56
2023/09/02 12:58:43;;;;;;;5.15;4.75;;;;;;;-144.30;30.47;82689.91;5131652;27;20792;-50
2023/09/02 13:01:25;;;;;;;8.10;4.22;;;;;;;-144.30;30.26;82650.19;5130681;27;20194;-51
2023/09/02 13:04:08;;;;;;;4.22;4.03;;;;;;;-144.30;30.52;83083.25;5131261;27;20194;-51
2023/09/02 13:06:52;;;;;;;4.82;4.50;;;;;;;-144.30;30.36;82697.88;5129896;27;20220;-52
2023/09/02 13:09:43;;;;;;;4.40;4.00;;;;;;;-144.30;30.63;82695.88;5127981;27;20198;-51
2023/09/02 13:12:22;;;;;;;4.30;4.10;;;;;;;-144.30;30.27;82654.16;5130620;27;20202;-52
2023/09/02 13:14:58;;;;;;;4.03;3.72;;;;;;;-144.30;30.34;82650.19;5130583;27;20273;-51
2023/09/02 13:21:20;;;;;;;4.65;4.30;;;;;;;-144.30;30.48;82662.09;5130656;27;20250;-52
2023/09/02 13:24:31;;;;;;;;;;;;;;;;;;;;;
2023/09/02 13:27:31;;;;;;;6.78;5.07;;;;;;;-144.30;30.06;82652.19;5130485;27;20442;-51
2023/09/02 13:30:28;;;;;;;4.70;4.40;;;;;;;-144.30;29.92;82616.44;5132333;27;20635;-52
2023/09/02 13:33:33;;;;;;;4.30;4.10;;;;;;;-144.30;29.69;82652.19;5131917;27;20222;-51
2023/09/02 13:36:26;;;;;;;5.22;4.75;;;;;;;-144.30;29.50;82618.41;5131807;27;20201;-57
2023/09/02 13:39:32;;;;;;;5.78;5.32;;;;;;;-144.30;29.59;82620.41;5131848;27;20201;-57
2023/09/02 13:45:41;;;;;;;4.60;4.40;;;;;;;-144.30;29.60;82592.59;5116376;27;20194;-56
2023/09/02 13:48:48;;;;;;;4.75;4.40;;;;;;;-144.30;29.93;82568.75;5131184;27;20202;-56
2023/09/02 13:54:36;;;;;;;5.35;4.93;;;;;;;-144.30;29.72;82542.94;5127540;27;20673;-52
2023/09/02 14:07:10;;;;;;;4.75;4.35;;;;;;;-144.30;29.78;83228.28;5130195;27;20210;-52
2023/09/02 14:22:19;;;;;;;6.80;4.25;;;;;;;-144.30;29.68;82443.63;5125806;27;20217;-57
2023/09/02 14:24:56;;;;;;;7.63;4.50;;;;;;;-144.30;29.99;82447.59;5128626;27;20247;-57
2023/09/02 14:27:36;;;;;;;5.20;4.68;;;;;;;-144.30;29.46;82419.78;5114748;27;20193;-57
2023/09/02 14:30:31;;;;;;;4.45;4.03;;;;;;;-144.30;29.59;82491.28;5127459;27;20204;-58
2023/09/02 14:33:31;;;;;;;4.63;4.22;;;;;;;-144.30;29.80;82527.03;5130574;27;20677;-57
2023/09/02 14:36:24;;;;;;;4.40;4.10;;;;;;;-144.30;30.12;82523.06;5130934;27;20202;-56
2023/09/02 14:45:26;;;;;;;4.95;4.65;;;;;;;-144.30;30.37;82586.63;5127010;27;20213;-52
2023/09/02 14:48:21;;;;;;;5.93;5.10;;;;;;;-144.30;30.34;82574.72;5107736;28;20239;-53
2023/09/02 14:51:17;;;;;;;9.18;7.57;;;;;;;-144.30;30.70;82666.09;5109790;28;20233;-58
2023/09/02 14:53:53;;;;;;;10.18;7.32;;;;;;;-144.30;30.64;82630.34;5124451;27;20648;-56
2023/09/02 14:56:40;;;;;;;10.18;6.70;;;;;;;-144.30;30.91;82646.22;5123363;27;20198;-56
2023/09/02 14:59:14;;;;;;;10.93;6.75;;;;;;;-144.30;31.08;82678.00;5127693;27;20202;-57
2023/09/02 15:02:01;;;;;;;8.60;7.72;;;;;;;-144.30;31.25;82697.88;5124320;27;20193;-56
2023/09/02 15:05:04;;;;;;;13.93;11.02;;;;;;;-144.30;31.26;82725.69;5109668;28;20194;-52
2023/09/02 15:07:56;;;;;;;16.63;10.70;;;;;;;-144.30;31.44;82735.59;5111046;27;20198;-51
2023/09/02 15:10:29;;;;;;;14.68;11.70;;;;;;;-144.30;31.53;82791.22;5122095;27;20199;-52
2023/09/02 15:12:58;;;;;;;15.50;10.60;;;;;;;-144.30;31.49;82759.44;5127916;27;20709;-50
2023/09/02 15:15:45;;;;;;;10.25;8.95;;;;;;;-144.30;31.45;82785.28;5129854;27;20249;-56
2023/09/02 15:21:11;;;;;;;5.20;4.90;;;;;;;-144.30;31.08;82817.06;5129134;27;20202;-56
2023/09/02 15:24:00;;;;;;;5.22;4.82;;;;;;;-144.30;31.18;82983.91;5130231;27;20589;-56
2023/09/02 15:36:36;;;;;;;4.85;4.55;;;;;;;-144.30;30.86;82791.22;5105839;28;20597;-49
2023/09/02 15:52:42;;;;;;;8.15;5.30;;;;;;;-144.30;31.19;82876.66;5107540;28;20228;-56
2023/09/02 16:12:31;;;;;;;;;;;;;;;;;;;;;
2023/09/02 16:15:39;;;;;;;6.72;5.32;;;;;;;-144.30;32.08;82954.13;5109043;28;20206;-56
2023/09/02 16:21:46;;;;;;;8.07;5.13;;;;;;;-144.30;32.32;82944.19;5106093;28;20294;-51
2023/09/02 16:34:23;;;;;;;7.28;5.38;;;;;;;-144.30;32.37;82964.06;5106937;28;20218;-55
2023/09/02 16:37:35;;;;;;;;;;;;;;;;;;;;;
2023/09/02 16:44:10;;;;;;;7.50;6.72;;;;;;;-144.30;32.51;82964.06;5107160;28;20194;-55
2023/09/02 16:47:26;;;;;;;;;;;;;;;;;;;;;
2023/09/02 17:00:09;;;;;;;5.72;5.32;;;;;;;-144.30;33.38;83077.28;5108152;28;20287;-50
2023/09/02 17:06:19;;;;;;;8.48;6.10;;;;;;;-144.30;34.03;83122.97;5101194;28;20430;-51
2023/09/02 17:11:55;;;;;;;9.55;6.18;;;;;;;-144.30;33.86;83107.09;5111841;28;20273;-55
2023/09/02 17:14:26;;;;;;;6.80;6.20;;;;;;;-144.30;34.23;83113.03;5106307;28;20210;-54
2023/09/02 17:17:00;;;;;;;10.23;7.15;;;;;;;-144.30;34.23;83099.13;5109094;28;20202;-53
2023/09/02 17:19:35;;;;;;;13.32;7.32;;;;;;;-144.30;34.42;83119.00;5111079;28;20201;-56
2023/09/02 17:22:12;;;;;;;7.95;7.32;;;;;;;-144.30;34.47;83146.81;5108080;28;20693;-54
2023/09/02 17:24:54;;;;;;;11.57;7.35;;;;;;;-144.30;34.74;83113.03;5108880;28;20287;-54
2023/09/02 17:27:37;;;;;;;7.43;5.93;;;;;;;-144.30;34.75;83087.22;5108859;28;20242;-54
2023/09/02 17:30:16;;;;;;;7.50;6.60;;;;;;;-144.30;34.76;83142.84;5103830;28;20258;-55
2023/09/02 17:32:58;;;;;;;13.32;6.95;;;;;;;-144.30;35.05;83166.69;5110983;28;20202;-54
2023/09/02 17:36:07;;;;;;;8.43;6.95;;;;;;;-144.30;35.09;83150.78;5111094;28;20201;-54
2023/09/02 17:38:53;;;;;;;9.57;8.07;;;;;;;-144.30;35.24;83176.63;5101802;28;20260;-54
2023/09/02 17:42:04;;;;;;;11.73;6.55;;;;;;;-144.30;35.83;83170.66;5103801;28;20281;-54
2023/09/02 17:45:01;;;;;;;8.90;6.80;;;;;;;-144.30;35.73;83212.38;5100613;28;20273;-55
2023/09/02 17:47:40;;;;;;;11.07;7.32;;;;;;;-144.30;36.63;83156.75;5090778;28;20210;-51
2023/09/02 17:50:32;;;;;;;16.35;7.78;;;;;;;-144.30;36.98;83202.44;5108992;28;20674;-54
2023/09/02 17:53:17;;;;;;;10.85;6.45;;;;;;;-144.30;37.41;83192.50;5108696;28;20279;-54
2023/09/02 17:56:01;;;;;;;11.23;7.72;;;;;;;-144.30;37.80;83244.16;5105049;28;20239;-54
2023/09/02 17:58:48;;;;;;;14.82;9.35;;;;;;;-144.30;37.97;83234.22;5110707;28;20199;-51
2023/09/02 18:01:30;;;;;;;11.75;10.00;;;;;;;-144.30;38.74;83264.03;5103157;28;20194;-50
2023/09/02 18:04:21;;;;;;;12.48;10.10;;;;;;;-144.30;39.04;83254.09;5111057;28;20564;-50
2023/09/02 18:07:29;;;;;;;;;;;;;;;;;;;;;
2023/09/02 18:10:28;;;;;;;21.30;13.13;;;;;;;-144.30;39.35;83299.78;5100281;28;20212;-51
2023/09/02 18:12:59;;;;;;;16.75;11.93;;;;;;;-144.30;39.41;83329.59;5108036;28;20289;-54
2023/09/02 18:15:32;;;;;;;12.60;9.32;;;;;;;-144.30;39.23;83345.50;5109327;28;20259;-54
2023/09/02 18:18:37;;;;;;;14.18;9.60;;;;;;;-144.30;38.85;83347.47;5117069;27;20205;-53
2023/09/02 18:21:09;;;;;;;18.20;10.27;;;;;;;-144.30;38.59;83367.34;5114223;27;20213;-49
2023/09/02 18:23:48;;;;;;;14.23;10.95;;;;;;;-144.30;38.37;83343.50;5108000;28;20186;-49